Time;durP1;ratioP1;P1;durP2;ratioP2;P2;SDS_P1;SDS_P2;PMS_P1;PMS_P2;Temp;Humidity;BMP_temperature;BMP_pressure;BME280_temperature;BME280_humidity;BME280_pressure;Samples;Min_cycle;Max_cycle;Signal;HPM_P1;HPM_P2
2023/02/02 00:01:22;;;;;;;17.33;2.88;;;;;;;11.11;64.83;102250.56;5039121;28;20120;-41
2023/02/02 00:03:49;;;;;;;23.45;3.40;;;;;;;11.69;63.20;102248.09;5043831;28;20433;-42
2023/02/02 00:06:16;;;;;;;21.98;3.47;;;;;;;11.36;63.82;102240.06;5039290;28;20033;-41
2023/02/02 00:08:41;;;;;;;23.65;3.45;;;;;;;11.22;64.26;102257.03;5043175;28;20492;-42
2023/02/02 00:11:07;;;;;;;20.85;3.30;;;;;;;11.40;64.14;102257.63;5039860;28;20040;-39
2023/02/02 00:13:32;;;;;;;22.10;3.60;;;;;;;11.43;64.41;102243.75;5042807;28;20060;-40
2023/02/02 00:15:57;;;;;;;16.75;2.78;;;;;;;11.30;65.01;102253.81;5044132;28;20037;-42
2023/02/02 00:18:23;;;;;;;21.38;3.85;;;;;;;11.56;64.26;102254.66;5040786;28;20087;-43
2023/02/02 00:20:49;;;;;;;21.33;2.90;;;;;;;11.32;64.89;102244.31;5044795;28;20037;-41
2023/02/02 00:23:16;;;;;;;20.60;3.35;;;;;;;11.23;64.68;102254.44;5041189;28;20032;-41
2023/02/02 00:25:42;;;;;;;15.02;3.08;;;;;;;11.15;65.01;102262.88;5043419;28;20402;-41
2023/02/02 00:28:07;;;;;;;19.05;3.03;;;;;;;11.33;64.45;102253.94;5041130;28;20025;-40
2023/02/02 00:30:33;;;;;;;20.52;3.35;;;;;;;11.48;63.63;102260.47;5043818;28;20380;-42
2023/02/02 00:32:58;;;;;;;19.83;3.63;;;;;;;11.21;64.84;102263.97;5045213;28;20072;-42
2023/02/02 00:35:23;;;;;;;17.77;3.30;;;;;;;11.22;64.83;102265.72;5040313;28;20033;-42
2023/02/02 00:37:48;;;;;;;14.48;3.17;;;;;;;11.44;64.51;102271.66;5045068;28;20071;-40
2023/02/02 00:40:14;;;;;;;15.27;2.85;;;;;;;11.54;64.10;102268.47;5041248;28;20037;-43
2023/02/02 00:42:39;;;;;;;17.85;3.25;;;;;;;11.38;64.52;102274.97;5043278;28;20049;-43
2023/02/02 00:45:14;;;;;;;19.00;3.33;;;;;;;11.85;62.61;102258.19;5041765;28;20052;-43
2023/02/02 00:47:41;;;;;;;18.83;3.42;;;;;;;11.46;63.88;102270.00;5038676;28;20056;-42
2023/02/02 00:50:08;;;;;;;20.73;3.35;;;;;;;11.54;63.52;102263.25;5039556;28;20435;-49
2023/02/02 00:52:33;;;;;;;20.80;3.47;;;;;;;11.23;64.59;102264.88;5040870;28;20060;-40
2023/02/02 00:54:58;;;;;;;18.25;3.20;;;;;;;11.40;64.27;102266.31;5042312;28;20533;-42
2023/02/02 00:57:24;;;;;;;23.27;3.97;;;;;;;11.46;64.25;102262.16;5038447;28;20061;-41
2023/02/02 00:59:49;;;;;;;16.95;3.08;;;;;;;11.43;64.04;102270.75;5043434;28;20112;-44
2023/02/02 01:02:14;;;;;;;16.70;3.15;;;;;;;11.53;63.98;102256.25;5038826;28;20223;-41
2023/02/02 01:04:40;;;;;;;21.25;3.88;;;;;;;11.15;64.87;102266.38;5043332;28;20029;-44
2023/02/02 01:07:05;;;;;;;24.65;3.88;;;;;;;11.31;64.37;102249.47;5043046;28;20429;-43
2023/02/02 01:09:30;;;;;;;16.75;3.42;;;;;;;11.52;63.71;102259.75;5039030;28;20028;-41
2023/02/02 01:11:56;;;;;;;28.42;3.50;;;;;;;11.31;64.44;102267.75;5042899;28;20033;-42
2023/02/02 01:14:21;;;;;;;20.67;3.50;;;;;;;11.50;64.21;102271.84;5040023;28;20037;-41
2023/02/02 01:16:47;;;;;;;19.05;3.30;;;;;;;10.98;65.44;102273.63;5043380;28;20041;-42
2023/02/02 01:19:13;;;;;;;25.48;3.35;;;;;;;11.23;65.05;102267.50;5039238;28;20116;-40
2023/02/02 01:21:39;;;;;;;19.67;3.17;;;;;;;11.34;64.64;102262.66;5041977;28;20064;-41
2023/02/02 01:24:04;;;;;;;18.98;3.67;;;;;;;11.05;65.18;102260.78;5043870;28;20060;-41
2023/02/02 01:26:30;;;;;;;19.65;3.65;;;;;;;11.04;65.53;102259.03;5040281;28;20033;-42
2023/02/02 01:28:55;;;;;;;17.20;3.58;;;;;;;11.32;64.57;102257.38;5044663;28;20100;-40
2023/02/02 01:31:21;;;;;;;24.48;3.20;;;;;;;10.98;65.55;102259.69;5037412;28;20582;-41
2023/02/02 01:33:47;;;;;;;22.48;3.38;;;;;;;11.22;65.04;102250.06;5041600;28;20041;-40
2023/02/02 01:36:18;;;;;;;22.27;3.75;;;;;;;11.21;65.17;102258.75;5037753;28;20462;-41
2023/02/02 01:38:45;;;;;;;23.45;3.38;;;;;;;11.03;65.33;102260.75;5041932;28;20037;-42
2023/02/02 01:41:17;;;;;;;22.17;3.70;;;;;;;11.12;65.27;102266.28;5037185;28;20294;-42
2023/02/02 01:43:42;;;;;;;20.60;3.03;;;;;;;11.20;65.26;102274.34;5041368;28;20044;-42
2023/02/02 01:46:29;;;;;;;19.90;3.40;;;;;;;11.32;65.02;102269.53;5038132;28;20311;-46
2023/02/02 01:49:15;;;;;;;23.02;3.78;;;;;;;11.37;64.92;102268.84;5041669;28;20174;-40
2023/02/02 01:51:51;;;;;;;21.75;3.30;;;;;;;11.27;64.73;102263.28;5037716;28;20037;-42
2023/02/02 01:54:23;;;;;;;18.38;3.45;;;;;;;11.26;64.99;102264.13;5038514;28;20068;-40
2023/02/02 01:56:57;;;;;;;15.75;3.38;;;;;;;11.33;65.27;102261.75;5042411;28;20037;-41
2023/02/02 01:59:25;;;;;;;21.92;4.05;;;;;;;11.38;65.13;102260.19;5045138;28;20033;-41
2023/02/02 02:01:53;;;;;;;19.85;3.17;;;;;;;11.39;64.69;102259.34;5049072;28;20033;-40
2023/02/02 02:04:20;;;;;;;30.17;3.70;;;;;;;11.57;64.07;102276.44;5041935;28;20423;-41
2023/02/02 02:06:47;;;;;;;23.00;3.80;;;;;;;11.33;64.82;102269.59;5046790;28;20040;-43
2023/02/02 02:09:12;;;;;;;24.67;3.45;;;;;;;11.65;63.57;102273.22;5042071;28;20033;-40
2023/02/02 02:11:38;;;;;;;25.23;3.55;;;;;;;11.26;64.76;102266.72;5044822;28;20086;-44
2023/02/02 02:17:20;;;;;;;22.58;3.70;;;;;;;11.52;64.06;102259.75;5041864;28;20130;-43
2023/02/02 02:29:16;;;;;;;20.33;3.35;;;;;;;11.42;63.74;102263.75;5041361;28;20067;-42
2023/02/02 02:32:00;;;;;;;20.83;3.75;;;;;;;11.43;64.22;102260.31;5040765;28;20522;-41
2023/02/02 02:34:43;;;;;;;21.23;3.03;;;;;;;11.10;65.24;102272.28;5041458;28;20036;-39
2023/02/02 02:37:18;;;;;;;23.33;3.55;;;;;;;11.14;65.04;102262.00;5041301;28;20079;-43
2023/02/02 02:39:52;;;;;;;19.13;3.47;;;;;;;10.92;65.95;102255.16;5045243;28;20033;-42
2023/02/02 02:42:21;;;;;;;;;;;;;;;11.12;65.44;102258.44;5042522;28;20029;-40
2023/02/02 02:44:48;;;;;;;19.08;3.30;;;;;;;11.17;65.53;102256.84;5045900;28;19916;-40
2023/02/02 02:47:14;;;;;;;22.30;3.85;;;;;;;11.21;65.12;102258.75;5041468;28;20037;-43
2023/02/02 02:49:44;;;;;;;16.52;3.42;;;;;;;11.33;64.92;102245.22;5044332;28;20042;-42
2023/02/02 02:52:09;;;;;;;22.80;3.72;;;;;;;11.61;63.75;102252.19;5039853;28;20557;-43
2023/02/02 02:54:40;;;;;;;20.17;3.50;;;;;;;11.52;63.64;102249.28;5044517;28;20167;-41
2023/02/02 02:57:26;;;;;;;19.77;3.28;;;;;;;11.42;63.88;102240.25;5044565;28;20044;-41
2023/02/02 03:00:29;;;;;;;23.33;3.35;;;;;;;11.54;63.97;102248.47;5041459;28;20082;-43
2023/02/02 03:03:36;;;;;;;21.30;3.67;;;;;;;11.68;62.97;102241.06;5041181;28;20091;-45
2023/02/02 03:06:20;;;;;;;19.33;3.08;;;;;;;11.67;63.40;102245.41;5040641;28;20037;-41
2023/02/02 03:08:52;;;;;;;16.90;3.00;;;;;;;11.14;65.31;102259.38;5043156;28;20033;-42
2023/02/02 03:11:18;;;;;;;17.40;3.05;;;;;;;11.24;64.83;102244.91;5039557;28;20036;-42
2023/02/02 03:13:44;;;;;;;16.50;3.10;;;;;;;11.48;64.42;102242.19;5044152;28;20025;-41
2023/02/02 03:16:10;;;;;;;18.23;3.10;;;;;;;11.37;64.59;102258.41;5039919;28;20399;-42
2023/02/02 03:18:35;;;;;;;15.27;2.88;;;;;;;11.41;64.37;102259.38;5044164;28;20112;-41
2023/02/02 03:21:00;;;;;;;19.55;3.78;;;;;;;11.38;64.27;102264.50;5043251;28;20057;-42
2023/02/02 03:23:26;;;;;;;19.52;3.15;;;;;;;11.37;64.70;102261.00;5038559;28;23332;-40
2023/02/02 03:25:52;;;;;;;16.67;3.10;;;;;;;11.29;65.04;102266.81;5043953;28;20028;-40
2023/02/02 03:28:18;;;;;;;18.52;3.03;;;;;;;11.25;64.80;102265.84;5039997;28;20021;-44
2023/02/02 03:30:45;;;;;;;14.23;2.70;;;;;;;11.26;64.71;102265.00;5051470;22;20049;-74
2023/02/02 03:33:12;;;;;;;17.33;2.65;;;;;;;11.28;64.90;102275.50;5020259;28;20091;-75
2023/02/02 03:35:37;;;;;;;18.38;2.58;;;;;;;11.23;64.91;102283.16;5024661;28;20540;-75
2023/02/02 03:38:02;;;;;;;19.52;3.10;;;;;;;11.28;64.98;102270.28;5024662;28;20037;-75
2023/02/02 03:40:29;;;;;;;20.55;3.20;;;;;;;11.09;65.28;102276.63;5020159;28;20072;-76
2023/02/02 03:42:54;;;;;;;15.55;2.90;;;;;;;11.45;64.77;102276.03;5023064;28;20447;-75
2023/02/02 03:45:20;;;;;;;18.25;3.22;;;;;;;11.54;64.47;102271.09;5018002;28;20036;-75
2023/02/02 03:47:45;;;;;;;18.13;3.03;;;;;;;11.44;64.79;102277.75;5023697;28;20030;-76
2023/02/02 03:50:10;;;;;;;21.83;3.30;;;;;;;11.19;65.53;102281.31;5019227;28;20036;-77
2023/02/02 03:52:36;;;;;;;20.23;3.17;;;;;;;11.39;65.01;102288.06;5023510;28;20029;-75
2023/02/02 03:55:01;;;;;;;17.70;2.90;;;;;;;11.57;64.73;102294.72;5023672;28;20033;-75
2023/02/02 03:57:26;;;;;;;15.23;3.25;;;;;;;11.34;65.18;102292.22;5019102;28;20447;-75
2023/02/02 03:59:52;;;;;;;19.92;3.20;;;;;;;11.62;64.23;102286.19;5024281;28;20041;-76
2023/02/02 04:02:17;;;;;;;17.40;3.08;;;;;;;11.38;65.01;102293.25;5017808;28;20033;-76
2023/02/02 04:04:42;;;;;;;18.13;3.65;;;;;;;11.39;64.94;102280.25;5023658;28;20036;-76
2023/02/02 04:07:09;;;;;;;20.80;3.55;;;;;;;11.30;65.42;102276.41;5017698;28;20336;-76
2023/02/02 04:09:34;;;;;;;17.08;3.40;;;;;;;10.97;66.21;102284.03;5023634;28;20032;-75
2023/02/02 04:11:59;;;;;;;14.52;2.60;;;;;;;11.31;65.34;102270.38;5023288;28;20041;-75
2023/02/02 04:14:25;;;;;;;18.58;3.13;;;;;;;11.39;64.80;102280.25;5019696;28;20049;-75
2023/02/02 04:16:50;;;;;;;16.20;2.90;;;;;;;11.34;64.99;102279.19;5023653;28;20105;-75
2023/02/02 04:19:15;;;;;;;21.73;3.22;;;;;;;11.30;64.99;102282.53;5019252;28;20033;-75
2023/02/02 04:21:41;;;;;;;16.60;2.60;;;;;;;11.35;64.83;102267.00;5021343;28;20406;-75
2023/02/02 04:24:10;;;;;;;16.58;3.05;;;;;;;11.25;65.11;102281.50;5037092;28;20045;-75
2023/02/02 04:26:35;;;;;;;22.33;3.05;;;;;;;11.53;64.45;102288.50;5018600;28;20116;-75
2023/02/02 04:29:01;;;;;;;18.50;2.83;;;;;;;11.11;65.29;102280.16;5022607;28;20109;-75
2023/02/02 04:31:28;;;;;;;17.20;3.30;;;;;;;11.22;65.46;102273.56;5017845;28;20999;-76
2023/02/02 04:33:54;;;;;;;15.43;2.80;;;;;;;11.12;65.15;102294.09;5022876;28;20064;-75
2023/02/02 04:36:20;;;;;;;16.10;2.85;;;;;;;11.49;64.48;102297.06;5018424;28;20033;-76
2023/02/02 04:38:49;;;;;;;16.77;3.08;;;;;;;11.67;64.04;102294.16;5022531;28;20468;-76
2023/02/02 04:41:14;;;;;;;19.33;3.15;;;;;;;11.00;65.90;102299.78;5017803;28;20256;-75
2023/02/02 04:43:39;;;;;;;16.83;2.80;;;;;;;11.40;65.00;102295.03;5022585;28;20057;-75
2023/02/02 04:46:05;;;;;;;18.15;3.00;;;;;;;11.22;65.56;102289.22;5022617;28;20108;-76
2023/02/02 04:48:30;;;;;;;13.77;3.00;;;;;;;11.27;65.75;102299.84;5018263;28;20087;-76
2023/02/02 04:50:59;;;;;;;19.80;2.78;;;;;;;11.62;64.23;102294.03;5017891;28;20114;-76
2023/02/02 04:53:25;;;;;;;15.85;2.70;;;;;;;11.27;65.13;102289.41;5027115;28;20065;-76
2023/02/02 04:55:50;;;;;;;14.73;2.80;;;;;;;11.49;63.92;102293.56;5022456;28;20121;-75
2023/02/02 04:58:16;;;;;;;19.35;3.08;;;;;;;11.32;64.84;102295.66;5017736;28;20034;-75
2023/02/02 05:00:41;;;;;;;15.52;2.97;;;;;;;11.41;65.09;102308.97;5022367;28;20037;-74
2023/02/02 05:03:06;;;;;;;18.25;3.28;;;;;;;11.61;63.56;102304.41;5022556;28;20076;-75
2023/02/02 05:05:32;;;;;;;12.82;2.60;;;;;;;11.32;65.08;102291.31;5018283;28;20087;-74
2023/02/02 05:07:58;;;;;;;22.48;2.80;;;;;;;11.48;64.64;102300.53;5037354;28;20037;-74
2023/02/02 05:10:24;;;;;;;12.25;2.72;;;;;;;11.24;64.82;102304.94;5018166;28;20471;-75
2023/02/02 05:12:52;;;;;;;20.23;3.47;;;;;;;11.61;63.95;102300.09;5022475;28;20117;-75
2023/02/02 05:15:17;;;;;;;19.23;4.45;;;;;;;11.28;65.46;102299.88;5033380;28;20596;-75
2023/02/02 05:17:42;;;;;;;16.88;3.85;;;;;;;11.55;63.94;102307.72;5022016;28;20037;-75
2023/02/02 05:20:08;;;;;;;17.92;3.75;;;;;;;11.70;64.14;102307.34;5033414;28;20030;-76
2023/02/02 05:22:34;;;;;;;16.60;3.33;;;;;;;11.31;65.13;102302.59;5021711;28;20041;-75
2023/02/02 05:24:59;;;;;;;15.45;3.05;;;;;;;11.93;63.54;102295.00;5022659;28;20033;-75
2023/02/02 05:27:24;;;;;;;16.02;3.15;;;;;;;11.38;64.96;102301.06;5018132;28;20059;-76
2023/02/02 05:29:50;;;;;;;22.98;3.47;;;;;;;11.40;64.89;102312.47;5022112;28;20125;-75
2023/02/02 05:32:16;;;;;;;19.98;3.22;;;;;;;11.45;64.78;102310.00;5019593;28;20386;-74
2023/02/02 05:34:41;;;;;;;17.52;3.42;;;;;;;11.51;64.63;102300.63;5026355;28;20030;-75
2023/02/02 05:37:06;;;;;;;23.55;3.95;;;;;;;11.35;65.63;102312.28;5026373;28;20029;-75
2023/02/02 05:39:32;;;;;;;18.55;3.20;;;;;;;11.46;65.27;102311.78;5022173;28;20029;-74
2023/02/02 05:41:57;;;;;;;16.88;3.00;;;;;;;11.27;65.91;102315.50;5040480;28;20442;-75
2023/02/02 05:44:22;;;;;;;16.55;3.15;;;;;;;11.20;65.87;102316.13;5022535;28;20037;-75
2023/02/02 05:46:48;;;;;;;22.83;3.78;;;;;;;11.53;64.68;102313.72;5041537;28;20044;-75
2023/02/02 05:49:13;;;;;;;15.13;3.15;;;;;;;11.24;65.61;102321.50;5022920;28;20026;-74
2023/02/02 05:51:47;;;;;;;18.80;3.15;;;;;;;11.56;64.70;102312.13;5026745;28;20033;-77
2023/02/02 05:54:18;;;;;;;12.18;2.70;;;;;;;11.48;65.11;102316.19;5022423;28;20053;-75
2023/02/02 05:56:43;;;;;;;18.90;3.33;;;;;;;11.46;65.35;102303.94;5027501;28;20478;-75
2023/02/02 05:59:09;;;;;;;12.40;3.05;;;;;;;11.62;65.02;102309.69;5023474;28;20033;-74
2023/02/02 06:01:34;;;;;;;18.67;3.35;;;;;;;11.14;66.51;102318.53;5028544;28;20134;-74
2023/02/02 06:03:59;;;;;;;16.77;2.85;;;;;;;11.14;66.18;102327.25;5045441;28;20037;-75
2023/02/02 06:06:25;;;;;;;13.60;2.92;;;;;;;11.64;64.90;102323.69;5027023;28;20029;-75
2023/02/02 06:08:50;;;;;;;21.65;3.17;;;;;;;11.32;65.55;102332.19;5029356;28;20095;-75
2023/02/02 06:11:17;;;;;;;18.60;3.28;;;;;;;11.44;65.20;102329.09;5029278;28;20441;-74
2023/02/02 06:13:43;;;;;;;15.95;3.00;;;;;;;11.28;65.41;102325.97;5024694;28;20364;-76
2023/02/02 06:16:08;;;;;;;22.08;3.25;;;;;;;11.33;65.53;102323.53;5020962;28;20033;-75
2023/02/02 06:18:35;;;;;;;14.35;3.17;;;;;;;11.13;66.25;102329.81;5023513;28;20053;-75
2023/02/02 06:21:02;;;;;;;18.52;3.33;;;;;;;11.17;66.61;102340.38;5024542;28;20486;-75
2023/02/02 06:23:27;;;;;;;19.67;3.20;;;;;;;11.29;66.09;102334.69;5020691;28;20033;-75
2023/02/02 06:25:53;;;;;;;19.92;4.25;;;;;;;11.38;65.86;102341.13;5024937;28;20092;-74
2023/02/02 06:28:18;;;;;;;19.15;2.92;;;;;;;11.15;66.56;102341.19;5021637;28;20033;-74
2023/02/02 06:30:44;;;;;;;20.13;3.17;;;;;;;11.39;65.79;102365.53;5024853;28;20091;-75
2023/02/02 06:33:09;;;;;;;22.23;3.22;;;;;;;11.43;66.31;102356.94;5036319;28;20391;-75
2023/02/02 06:35:34;;;;;;;18.67;3.40;;;;;;;10.94;68.41;102376.13;5024736;28;20379;-76
2023/02/02 06:38:00;;;;;;;17.13;3.20;;;;;;;11.23;67.18;102378.88;5024729;28;20612;-75
2023/02/02 06:40:27;;;;;;;18.90;3.00;;;;;;;11.12;67.82;102370.66;5020584;28;20503;-75
2023/02/02 06:43:00;;;;;;;19.17;2.97;;;;;;;11.15;67.47;102362.97;5024256;28;20509;-75
2023/02/02 06:45:28;;;;;;;19.88;3.38;;;;;;;11.12;67.45;102360.22;5020747;28;20068;-75
2023/02/02 06:47:59;;;;;;;15.35;3.38;;;;;;;11.17;67.69;102363.00;5025326;28;20034;-76
2023/02/02 06:50:25;;;;;;;18.42;3.67;;;;;;;11.05;67.05;102354.72;5021078;28;20526;-76
2023/02/02 06:52:51;;;;;;;16.02;3.25;;;;;;;11.05;67.22;102365.16;5025001;28;20032;-75
2023/02/02 06:55:18;;;;;;;16.73;2.95;;;;;;;11.37;65.98;102356.72;5019087;28;20022;-76
2023/02/02 06:57:44;;;;;;;18.73;2.70;;;;;;;11.56;65.74;102355.63;5024851;28;20033;-75
2023/02/02 07:00:10;;;;;;;15.82;3.00;;;;;;;10.81;67.53;102352.16;5020260;28;20136;-76
2023/02/02 07:02:35;;;;;;;19.48;2.95;;;;;;;11.02;67.26;102360.75;5024347;28;20116;-76
2023/02/02 07:05:00;;;;;;;22.15;2.95;;;;;;;11.09;66.47;102354.03;5039506;28;20502;-75
2023/02/02 07:07:26;;;;;;;17.13;2.78;;;;;;;11.11;66.70;102370.59;5020540;28;20029;-76
2023/02/02 07:09:52;;;;;;;16.73;3.08;;;;;;;11.18;65.94;102378.72;5024637;28;20033;-75
2023/02/02 07:12:18;;;;;;;17.48;3.33;;;;;;;11.25;66.14;102382.44;5019787;28;20060;-75
2023/02/02 07:14:44;;;;;;;19.20;3.13;;;;;;;10.93;67.30;102373.47;5024414;28;20030;-74
2023/02/02 07:17:09;;;;;;;12.70;2.70;;;;;;;11.28;65.82;102378.19;5020347;28;20087;-75
2023/02/02 07:19:34;;;;;;;16.55;3.03;;;;;;;11.31;65.49;102378.31;5024047;28;20025;-75
2023/02/02 07:22:00;;;;;;;16.35;3.10;;;;;;;10.91;66.97;102388.19;5023849;28;20061;-75
2023/02/02 07:24:26;;;;;;;14.57;3.25;;;;;;;11.29;65.54;102392.13;5019592;28;20029;-75
2023/02/02 07:26:51;;;;;;;16.35;3.20;;;;;;;10.64;67.85;102393.28;5023981;28;20037;-74
2023/02/02 07:29:17;;;;;;;11.13;2.90;;;;;;;11.24;66.22;102397.19;5019816;28;20449;-75
2023/02/02 07:31:42;;;;;;;17.15;2.63;;;;;;;11.26;65.81;102397.25;5023536;28;20030;-75
2023/02/02 07:34:08;;;;;;;22.38;3.80;;;;;;;11.26;66.09;102394.66;5034754;28;20041;-77
2023/02/02 07:36:33;;;;;;;16.15;2.83;;;;;;;10.84;67.02;102407.06;5023477;28;20044;-75
2023/02/02 07:39:01;;;;;;;23.50;3.25;;;;;;;11.12;66.28;102407.22;5024867;28;20045;-76
2023/02/02 07:41:26;;;;;;;16.85;3.10;;;;;;;11.07;66.39;102414.00;5054340;28;20141;-75
2023/02/02 07:43:52;;;;;;;13.73;2.58;;;;;;;11.08;66.22;102417.50;5044344;28;20032;-74
2023/02/02 07:46:18;;;;;;;17.98;3.08;;;;;;;11.05;66.64;102414.75;5040518;28;20059;-76
2023/02/02 07:48:43;;;;;;;12.95;2.60;;;;;;;11.04;65.91;102424.31;5043597;28;20029;-76
2023/02/02 07:51:13;;;;;;;14.68;2.50;;;;;;;10.97;66.34;102431.06;5039752;28;20044;-76
2023/02/02 07:53:41;;;;;;;18.85;2.65;;;;;;;11.15;65.72;102424.72;5043877;28;20024;-78
2023/02/02 07:56:11;;;;;;;18.20;2.85;;;;;;;10.91;66.79;102440.38;5042951;28;20037;-77
2023/02/02 07:58:36;;;;;;;16.52;2.60;;;;;;;11.24;65.99;102425.91;5033331;28;20041;-77
2023/02/02 08:01:06;;;;;;;16.50;2.75;;;;;;;10.89;66.93;102424.66;5023396;28;20044;-76
2023/02/02 08:03:32;;;;;;;12.45;2.97;;;;;;;11.01;66.24;102429.44;5020295;28;20041;-77
2023/02/02 08:05:58;;;;;;;16.13;2.88;;;;;;;11.13;65.83;102416.81;5023770;28;20033;-76
2023/02/02 08:08:24;;;;;;;15.82;3.13;;;;;;;11.44;65.35;102430.94;5019150;28;20037;-76
2023/02/02 08:10:51;;;;;;;17.58;2.88;;;;;;;10.96;66.63;102428.38;5023201;28;20033;-76
2023/02/02 08:13:16;;;;;;;18.85;2.55;;;;;;;11.20;65.61;102431.00;5019114;28;20029;-77
2023/02/02 08:15:41;;;;;;;14.70;2.65;;;;;;;11.12;65.89;102429.81;5023619;28;20037;-76
2023/02/02 08:18:07;;;;;;;16.50;2.90;;;;;;;11.43;65.03;102432.66;5023346;28;20031;-76
2023/02/02 08:20:32;;;;;;;15.10;2.78;;;;;;;11.10;66.05;102437.56;5018922;28;20044;-76
2023/02/02 08:22:57;;;;;;;15.52;2.67;;;;;;;11.47;65.11;102446.72;5038645;28;20030;-76
2023/02/02 08:25:24;;;;;;;16.25;2.80;;;;;;;11.33;65.08;102452.38;5017574;28;20033;-76
2023/02/02 08:27:53;;;;;;;15.55;2.88;;;;;;;11.24;65.34;102440.69;5023900;28;20461;-77
2023/02/02 08:30:18;;;;;;;21.02;2.83;;;;;;;11.31;65.10;102440.97;5019406;28;20091;-76
2023/02/02 08:32:43;;;;;;;25.88;2.95;;;;;;;11.07;65.86;102454.88;5038208;28;20046;-76
2023/02/02 08:35:09;;;;;;;17.27;3.55;;;;;;;11.21;65.50;102445.81;5018643;28;20029;-77
2023/02/02 08:37:34;;;;;;;16.83;2.90;;;;;;;11.38;64.77;102453.41;5023191;28;20132;-76
2023/02/02 08:39:59;;;;;;;20.73;2.85;;;;;;;11.35;64.51;102458.50;5013120;28;20032;-76
2023/02/02 08:42:25;;;;;;;18.73;2.63;;;;;;;11.57;64.10;102473.22;5018829;28;20037;-77
2023/02/02 08:44:50;;;;;;;15.40;2.65;;;;;;;11.36;64.88;102457.69;5023131;28;20057;-76
2023/02/02 08:47:15;;;;;;;19.98;2.88;;;;;;;11.46;64.38;102474.56;5018501;28;20038;-77
2023/02/02 08:49:41;;;;;;;15.40;2.80;;;;;;;11.26;64.98;102466.03;5037918;28;20037;-77
2023/02/02 08:52:06;;;;;;;15.48;2.70;;;;;;;11.45;64.23;102471.91;5022853;28;20049;-77
2023/02/02 08:54:32;;;;;;;16.00;3.05;;;;;;;11.26;65.39;102471.25;5017909;28;20510;-76
2023/02/02 08:56:58;;;;;;;19.05;3.20;;;;;;;11.77;64.10;102481.78;5028870;28;20026;-76
2023/02/02 08:59:23;;;;;;;23.90;3.08;;;;;;;11.89;63.55;102478.69;5041398;28;20033;-76
2023/02/02 09:01:48;;;;;;;18.42;2.80;;;;;;;11.45;64.96;102472.78;5024597;28;20086;-76
2023/02/02 09:04:15;;;;;;;19.88;2.75;;;;;;;11.40;65.41;102472.63;5019128;28;20041;-76
2023/02/02 09:06:41;;;;;;;14.23;2.78;;;;;;;11.59;64.93;102481.97;5022320;28;20028;-78
2023/02/02 09:09:10;;;;;;;21.17;3.20;;;;;;;11.67;64.24;102488.38;5023173;28;20055;-76
2023/02/02 09:11:36;;;;;;;10.93;2.47;;;;;;;11.48;64.64;102490.28;5018424;28;20025;-77
2023/02/02 09:14:02;;;;;;;15.02;3.10;;;;;;;11.81;63.96;102496.72;5022424;28;20451;-77
2023/02/02 09:16:28;;;;;;;17.20;3.13;;;;;;;11.61;64.35;102489.88;5019222;28;20497;-77
2023/02/02 09:18:55;;;;;;;23.88;2.90;;;;;;;11.13;65.67;102497.75;5024006;28;20046;-76
2023/02/02 09:21:21;;;;;;;14.38;3.10;;;;;;;11.73;64.08;102509.50;5019740;28;20029;-75
2023/02/02 09:23:48;;;;;;;13.57;2.78;;;;;;;11.33;65.05;102498.47;5050817;22;20424;-42
2023/02/02 09:26:24;;;;;;;17.52;2.80;;;;;;;11.25;65.25;102502.53;5037796;28;20059;-41
2023/02/02 09:28:57;;;;;;;17.27;3.10;;;;;;;11.34;65.53;102506.34;5042193;28;20033;-43
2023/02/02 09:31:23;;;;;;;11.57;2.63;;;;;;;11.99;62.91;102501.69;5033214;28;20496;-41
2023/02/02 09:33:49;;;;;;;19.55;2.42;;;;;;;11.62;63.80;102507.34;5011632;28;20034;-42
2023/02/02 09:36:20;;;;;;;16.92;2.92;;;;;;;11.68;64.20;102515.38;5027119;23;20554;-44
2023/02/02 09:38:46;;;;;;;14.95;2.40;;;;;;;11.55;64.72;102507.94;5023317;28;20041;-47
2023/02/02 09:41:35;;;;;;;15.63;2.83;;;;;;;11.85;63.60;102502.94;5018092;28;20061;-43
2023/02/02 09:44:36;;;;;;;17.30;2.60;;;;;;;11.79;63.55;102512.34;5021841;28;20116;-43
2023/02/02 09:47:01;;;;;;;13.60;2.70;;;;;;;12.33;61.94;102503.66;5008226;28;20082;-46
2023/02/02 09:49:35;;;;;;;18.02;2.35;;;;;;;11.81;63.64;102507.19;5018334;28;20092;-41
2023/02/02 09:52:07;;;;;;;15.55;2.63;;;;;;;11.98;63.00;102492.06;5022049;28;20033;-44
2023/02/02 09:54:43;;;;;;;15.18;2.70;;;;;;;11.70;63.24;102506.78;5019699;28;20044;-46
2023/02/02 09:57:21;;;;;;;14.07;2.53;;;;;;;11.90;62.96;102503.97;5025896;28;20049;-44
2023/02/02 09:59:49;;;;;;;17.63;2.50;;;;;;;12.17;61.98;102499.66;5008624;28;20041;-46
2023/02/02 10:02:23;;;;;;;17.98;2.38;;;;;;;12.37;61.74;102514.28;5020968;28;20037;-45
2023/02/02 10:04:59;;;;;;;14.45;2.20;;;;;;;11.98;62.64;102518.19;5023252;28;20029;-48
2023/02/02 10:07:37;;;;;;;14.85;2.40;;;;;;;12.20;62.19;102520.66;5019315;28;20029;-44
2023/02/02 10:10:12;;;;;;;12.90;2.30;;;;;;;12.07;62.00;102524.63;5022924;28;20403;-44
2023/02/02 10:12:46;;;;;;;16.48;2.40;;;;;;;12.12;62.03;102527.41;5018154;28;20029;-44
2023/02/02 10:15:12;;;;;;;;;;;;;;;11.69;63.15;102525.00;5018685;28;20145;-43
2023/02/02 10:17:48;;;;;;;12.48;2.30;;;;;;;11.79;63.29;102525.41;5021858;28;20443;-47
2023/02/02 10:20:43;;;;;;;14.13;2.17;;;;;;;11.66;63.16;102507.50;5022028;28;20052;-44
2023/02/02 10:23:17;;;;;;;17.63;2.80;;;;;;;11.52;63.73;102531.38;5004491;28;20033;-44
2023/02/02 10:25:48;;;;;;;;;;;;;;;11.83;62.70;102533.38;5026218;28;20037;-43
2023/02/02 10:28:18;;;;;;;11.05;2.00;;;;;;;11.38;64.34;102534.38;5022180;28;19935;-43
2023/02/02 10:30:49;;;;;;;12.68;2.28;;;;;;;12.11;62.32;102536.06;5025097;28;20043;-44
2023/02/02 10:33:32;;;;;;;17.02;2.42;;;;;;;12.43;61.37;102540.63;5021974;28;20117;-44
2023/02/02 10:36:23;;;;;;;19.48;2.58;;;;;;;12.31;61.50;102549.81;5025772;28;20038;-41
2023/02/02 10:39:16;;;;;;;13.13;2.25;;;;;;;12.30;61.45;102548.03;5022899;28;20041;-43
2023/02/02 10:41:58;;;;;;;15.85;2.35;;;;;;;12.30;61.77;102550.66;5022121;28;20037;-44
2023/02/02 10:44:48;;;;;;;16.50;2.33;;;;;;;12.02;61.78;102559.28;5022632;28;20026;-44
2023/02/02 10:47:22;;;;;;;14.02;2.30;;;;;;;12.16;62.10;102551.06;5022817;28;20411;-44
2023/02/02 10:50:16;;;;;;;16.45;2.60;;;;;;;11.74;63.47;102549.59;5025936;28;20152;-45
2023/02/02 10:53:00;;;;;;;18.20;2.13;;;;;;;12.02;63.11;102546.19;5013556;28;20043;-46
2023/02/02 10:55:34;;;;;;;20.35;2.80;;;;;;;12.17;62.36;102547.63;5023998;28;20053;-44
2023/02/02 10:58:11;;;;;;;16.75;2.58;;;;;;;12.59;60.92;102548.13;5026764;28;20048;-44
2023/02/02 11:00:44;;;;;;;15.52;3.13;;;;;;;12.39;61.92;102540.47;5022508;28;20144;-44
2023/02/02 11:03:12;;;;;;;11.77;2.42;;;;;;;12.43;61.71;102545.88;5009393;28;20076;-44
2023/02/02 11:08:30;;;;;;;16.88;2.47;;;;;;;12.12;62.38;102546.59;5024428;28;20072;-46
2023/02/02 11:10:59;;;;;;;13.38;2.20;;;;;;;12.71;61.44;102551.97;5026694;28;20034;-45
2023/02/02 11:13:32;;;;;;;16.05;2.63;;;;;;;12.19;62.51;102556.41;5022414;28;20128;-45
2023/02/02 11:16:15;;;;;;;12.30;2.03;;;;;;;12.64;61.63;102555.22;5024837;28;20037;-43
2023/02/02 11:18:42;;;;;;;17.85;2.40;;;;;;;12.63;61.76;102553.44;5019730;28;20048;-46
2023/02/02 11:21:31;;;;;;;15.90;2.67;;;;;;;11.99;63.87;102561.78;5020941;28;20033;-60
2023/02/02 11:24:06;;;;;;;14.40;2.47;;;;;;;12.40;62.31;102552.72;5024222;28;20037;-43
2023/02/02 11:26:55;;;;;;;17.48;2.53;;;;;;;12.59;61.74;102555.09;5019748;28;20034;-44
2023/02/02 11:29:42;;;;;;;11.88;2.28;;;;;;;11.99;63.45;102560.06;5020420;28;20117;-43
2023/02/02 11:32:31;;;;;;;15.90;2.25;;;;;;;12.17;63.01;102563.31;5023675;28;20037;-41
2023/02/02 11:35:03;;;;;;;18.98;2.45;;;;;;;11.92;63.99;102559.81;5026826;28;20037;-43
2023/02/02 11:37:30;;;;;;;13.95;2.50;;;;;;;12.12;63.54;102559.66;5024321;28;20752;-48
2023/02/02 11:40:32;;;;;;;14.90;1.95;;;;;;;12.08;63.61;102562.09;5025328;28;20064;-44